createdAt,value
2023-05-03T00:01:30.051Z,7.30
2023-05-03T00:03:57.087Z,8.23
2023-05-03T00:06:24.299Z,6.45
2023-05-03T00:08:51.434Z,6.20
2023-05-03T00:11:18.633Z,6.50
2023-05-03T00:13:46.003Z,8.10
2023-05-03T00:16:13.333Z,10.80
2023-05-03T00:18:40.312Z,8.55
2023-05-03T00:21:07.997Z,6.22
2023-05-03T00:23:34.910Z,6.10
2023-05-03T00:26:02.153Z,6.70
2023-05-03T00:28:29.055Z,5.68
2023-05-03T00:30:56.666Z,6.13
2023-05-03T00:33:23.603Z,4.82
2023-05-03T00:35:51.205Z,6.18
2023-05-03T00:38:18.258Z,5.90
2023-05-03T00:40:46.442Z,6.97
2023-05-03T00:43:13.772Z,5.80
2023-05-03T00:45:41.288Z,5.70
2023-05-03T00:48:08.615Z,4.93
2023-05-03T00:50:37.072Z,5.53
2023-05-03T00:53:04.222Z,6.10
2023-05-03T00:55:32.041Z,5.40
2023-05-03T00:57:58.968Z,6.43
2023-05-03T01:00:26.363Z,5.25
2023-05-03T01:02:54.431Z,5.93
2023-05-03T01:05:23.074Z,5.18
2023-05-03T01:07:49.987Z,6.32
2023-05-03T01:10:34.030Z,6.40
2023-05-03T01:13:26.301Z,5.88
2023-05-03T01:16:01.026Z,5.53
2023-05-03T01:18:33.833Z,5.75
2023-05-03T01:21:02.885Z,5.63
2023-05-03T01:23:33.324Z,5.97
2023-05-03T01:26:15.158Z,6.15
2023-05-03T01:28:42.196Z,6.07
2023-05-03T01:31:10.674Z,5.38
2023-05-03T01:33:45.102Z,5.40
2023-05-03T01:36:17.106Z,5.10
2023-05-03T01:38:44.352Z,6.03
2023-05-03T01:41:12.588Z,6.40
2023-05-03T01:43:40.808Z,6.32
2023-05-03T01:46:08.580Z,5.82
2023-05-03T01:48:35.761Z,5.90
2023-05-03T01:51:03.596Z,5.88
2023-05-03T01:53:30.481Z,6.57
2023-05-03T01:55:57.919Z,5.97
2023-05-03T01:58:24.890Z,5.65
2023-05-03T02:00:53.367Z,6.15
2023-05-03T02:03:20.897Z,6.55
2023-05-03T02:05:48.649Z,5.75
2023-05-03T02:08:16.630Z,5.82
2023-05-03T02:10:44.615Z,6.43
2023-05-03T02:13:11.577Z,6.15
2023-05-03T02:15:38.790Z,6.53
2023-05-03T02:18:05.949Z,6.22
2023-05-03T02:20:37.728Z,6.07
2023-05-03T02:23:04.964Z,5.93
2023-05-03T02:25:32.257Z,6.05
2023-05-03T02:27:59.228Z,5.53
2023-05-03T02:30:26.482Z,5.97
2023-05-03T02:32:53.409Z,6.68
2023-05-03T02:35:21.646Z,6.32
2023-05-03T02:37:48.666Z,6.60
2023-05-03T02:40:17.185Z,5.75
2023-05-03T02:42:46.702Z,6.32
2023-05-03T02:45:17.345Z,6.32
2023-05-03T02:47:44.504Z,5.75
2023-05-03T02:50:12.278Z,6.60
2023-05-03T02:52:40.756Z,5.43
2023-05-03T02:55:08.417Z,5.85
2023-05-03T02:57:36.329Z,4.82
2023-05-03T03:00:06.520Z,4.18
2023-05-03T03:02:34.085Z,3.80
2023-05-03T03:05:01.585Z,3.95
2023-05-03T03:07:28.941Z,4.10
2023-05-03T03:09:58.261Z,3.72
2023-05-03T03:12:27.797Z,3.92
2023-05-03T03:14:56.118Z,3.58
2023-05-03T03:17:24.004Z,3.33
2023-05-03T03:19:51.349Z,3.58
2023-05-03T03:22:18.723Z,3.97
2023-05-03T03:24:47.094Z,3.90
2023-05-03T03:27:14.124Z,4.10
2023-05-03T03:29:41.382Z,3.83
2023-05-03T03:32:11.640Z,3.95
2023-05-03T03:34:39.401Z,3.45
2023-05-03T03:37:06.625Z,3.58
2023-05-03T03:39:35.460Z,3.10
2023-05-03T03:42:03.066Z,2.78
2023-05-03T03:44:30.759Z,2.63
2023-05-03T03:46:57.891Z,2.70
2023-05-03T03:49:25.760Z,2.58
2023-05-03T03:51:52.700Z,2.60
2023-05-03T03:54:20.069Z,2.80
2023-05-03T03:56:51.100Z,2.35
2023-05-03T03:59:18.716Z,2.25
2023-05-03T04:01:46.943Z,2.63
2023-05-03T04:04:14.305Z,2.53
2023-05-03T04:06:41.528Z,3.13
2023-05-03T04:09:13.933Z,2.42
2023-05-03T04:11:40.973Z,2.80
2023-05-03T04:14:09.076Z,2.60
2023-05-03T04:16:36.313Z,2.40
2023-05-03T04:19:05.641Z,2.88
2023-05-03T04:21:35.199Z,2.50
2023-05-03T04:24:05.879Z,2.53
2023-05-03T04:26:34.017Z,2.58
2023-05-03T04:29:09.200Z,2.72
2023-05-03T04:31:36.459Z,2.22
2023-05-03T04:34:03.765Z,1.98
2023-05-03T04:36:31.417Z,2.47
2023-05-03T04:38:59.480Z,2.40
2023-05-03T04:41:26.744Z,2.47
2023-05-03T04:43:55.154Z,2.33
2023-05-03T04:46:22.260Z,2.60
2023-05-03T04:48:51.520Z,2.35
2023-05-03T04:51:18.654Z,2.40
2023-05-03T04:53:47.602Z,2.50
2023-05-03T04:56:19.814Z,2.38
2023-05-03T04:58:47.217Z,2.33
2023-05-03T05:01:16.354Z,2.55
2023-05-03T05:03:44.330Z,1.98
2023-05-03T05:06:17.761Z,2.45
2023-05-03T05:08:45.873Z,2.60
2023-05-03T05:11:15.011Z,2.05
2023-05-03T05:13:42.436Z,2.33
2023-05-03T05:16:09.460Z,2.13
2023-05-03T05:18:39.530Z,1.98
2023-05-03T05:21:08.836Z,2.17
2023-05-03T05:23:37.920Z,2.20
2023-05-03T05:26:05.331Z,2.28
2023-05-03T05:28:33.883Z,2.30
2023-05-03T05:31:01.558Z,2.10
2023-05-03T05:33:29.637Z,2.33
2023-05-03T05:35:57.852Z,2.35
2023-05-03T05:38:25.401Z,2.00
2023-05-03T05:40:56.419Z,2.25
2023-05-03T05:43:25.111Z,2.08
2023-05-03T05:45:52.097Z,1.95
2023-05-03T05:48:20.473Z,2.33
2023-05-03T05:50:48.898Z,2.20
2023-05-03T05:53:16.741Z,2.28
2023-05-03T05:55:53.656Z,2.00
2023-05-03T05:58:21.213Z,2.25
2023-05-03T06:00:51.911Z,2.67
2023-05-03T06:03:19.877Z,2.33
2023-05-03T06:05:49.493Z,1.70
2023-05-03T06:08:16.797Z,2.22
2023-05-03T06:10:43.833Z,1.90
2023-05-03T06:13:11.509Z,1.98
2023-05-03T06:15:38.484Z,1.80
2023-05-03T06:18:06.003Z,2.33
2023-05-03T06:20:33.186Z,1.88
2023-05-03T06:23:02.616Z,1.88
2023-05-03T06:25:29.539Z,2.08
2023-05-03T06:27:57.374Z,1.50
2023-05-03T06:30:28.727Z,2.13
2023-05-03T06:33:01.869Z,2.05
2023-05-03T06:35:29.472Z,1.75
2023-05-03T06:37:56.756Z,1.65
2023-05-03T06:40:25.633Z,2.03
2023-05-03T06:42:52.898Z,2.25
2023-05-03T06:45:33.655Z,2.20
2023-05-03T06:48:00.999Z,2.03
2023-05-03T06:50:27.954Z,2.22
2023-05-03T06:52:55.268Z,1.83
2023-05-03T06:55:22.156Z,2.05
2023-05-03T06:57:49.473Z,2.33
2023-05-03T07:00:16.808Z,2.10
2023-05-03T07:02:44.617Z,1.65
2023-05-03T07:05:11.788Z,2.17
2023-05-03T07:07:39.038Z,2.53
2023-05-03T07:10:07.011Z,2.45
2023-05-03T07:12:34.446Z,1.90
2023-05-03T07:15:01.586Z,1.85
2023-05-03T07:17:28.907Z,2.10
2023-05-03T07:19:57.252Z,1.45
2023-05-03T07:22:28.024Z,1.88
2023-05-03T07:24:55.840Z,1.70
2023-05-03T07:27:23.368Z,1.77
2023-05-03T07:29:50.436Z,1.52
2023-05-03T07:32:17.747Z,1.13
2023-05-03T07:34:44.759Z,1.20
2023-05-03T07:37:12.328Z,1.42
2023-05-03T07:39:39.714Z,1.63
2023-05-03T07:42:07.689Z,1.58
2023-05-03T07:44:34.669Z,1.23
2023-05-03T07:47:01.874Z,1.50
2023-05-03T07:49:28.968Z,1.42
2023-05-03T07:51:56.337Z,1.35
2023-05-03T07:54:23.207Z,1.60
2023-05-03T07:56:51.401Z,1.60
2023-05-03T07:59:19.018Z,1.20
2023-05-03T08:01:46.398Z,1.60
2023-05-03T08:04:13.546Z,1.42
2023-05-03T08:06:40.906Z,1.60
2023-05-03T08:09:08.850Z,1.27
2023-05-03T08:11:36.776Z,1.40
2023-05-03T08:14:03.712Z,1.88
2023-05-03T08:16:31.274Z,1.45
2023-05-03T08:18:58.371Z,1.45
2023-05-03T08:21:26.270Z,1.63
2023-05-03T08:23:53.395Z,1.27
2023-05-03T08:26:22.167Z,1.58
2023-05-03T08:28:49.187Z,1.52
2023-05-03T08:31:16.823Z,1.20
2023-05-03T08:33:43.967Z,1.60
2023-05-03T08:36:11.305Z,1.38
2023-05-03T08:38:41.458Z,1.58
2023-05-03T08:41:17.422Z,1.35
2023-05-03T08:43:46.825Z,1.95
2023-05-03T08:46:14.218Z,1.40
2023-05-03T08:48:43.506Z,1.65
2023-05-03T08:51:11.240Z,1.25
2023-05-03T08:53:38.162Z,1.48
2023-05-03T08:56:10.257Z,1.45
2023-05-03T08:58:37.799Z,1.27
2023-05-03T09:01:06.458Z,1.40
2023-05-03T09:03:34.332Z,1.50
2023-05-03T09:06:02.378Z,1.00
2023-05-03T09:08:30.604Z,1.38
2023-05-03T09:10:58.176Z,1.30
2023-05-03T09:13:34.342Z,1.08
2023-05-03T09:16:02.973Z,1.10
2023-05-03T09:18:30.683Z,0.95
2023-05-03T09:20:59.090Z,1.20
2023-05-03T09:23:26.208Z,1.48
2023-05-03T09:25:53.670Z,1.50
2023-05-03T09:28:21.319Z,1.60
2023-05-03T09:30:49.305Z,1.30
2023-05-03T09:33:23.098Z,1.10
2023-05-03T09:36:16.353Z,1.20
2023-05-03T09:38:43.276Z,1.35
2023-05-03T09:41:11.004Z,1.20
2023-05-03T09:43:49.779Z,1.05
2023-05-03T09:46:17.273Z,1.58
2023-05-03T09:48:44.524Z,1.50
2023-05-03T09:51:12.843Z,1.20
2023-05-03T09:53:40.618Z,1.38
2023-05-03T09:56:14.044Z,1.30
2023-05-03T09:58:42.077Z,1.08
2023-05-03T10:01:10.095Z,1.20
2023-05-03T10:03:42.100Z,1.10
2023-05-03T10:06:39.236Z,1.00
2023-05-03T10:09:11.057Z,1.17
2023-05-03T10:11:39.613Z,0.82
2023-05-03T10:14:07.767Z,1.30
2023-05-03T10:16:37.510Z,1.20
2023-05-03T10:19:07.157Z,0.80
2023-05-03T10:21:55.124Z,1.05
2023-05-03T10:24:22.303Z,0.85
2023-05-03T10:26:51.075Z,1.33
2023-05-03T10:29:37.483Z,1.30
2023-05-03T10:32:05.999Z,1.40
2023-05-03T10:34:35.017Z,1.08
2023-05-03T10:37:10.651Z,0.93
2023-05-03T10:39:37.796Z,1.13
2023-05-03T10:42:08.088Z,1.00
2023-05-03T10:44:51.408Z,0.85
2023-05-03T10:47:25.156Z,1.23
2023-05-03T10:50:15.016Z,0.90
2023-05-03T10:52:42.266Z,0.95
2023-05-03T10:55:10.315Z,1.05
2023-05-03T10:57:40.471Z,0.90
2023-05-03T11:00:12.518Z,0.90
2023-05-03T11:03:10.945Z,1.35
2023-05-03T11:05:39.047Z,0.77
2023-05-03T11:08:13.304Z,1.10
2023-05-03T11:10:41.270Z,0.90
2023-05-03T11:13:08.603Z,1.10
2023-05-03T11:15:36.183Z,1.02
2023-05-03T11:18:03.677Z,0.90
2023-05-03T11:20:30.783Z,1.10
2023-05-03T11:22:58.173Z,1.00
2023-05-03T11:25:25.178Z,0.95
2023-05-03T11:27:52.449Z,1.05
2023-05-03T11:30:19.540Z,0.90
2023-05-03T11:32:47.502Z,1.00
2023-05-03T11:35:15.515Z,0.82
2023-05-03T11:37:43.522Z,0.90
2023-05-03T11:40:17.169Z,1.05
2023-05-03T11:42:54.970Z,1.20
2023-05-03T11:45:26.846Z,1.02
2023-05-03T11:47:54.329Z,0.93
2023-05-03T11:50:46.866Z,1.05
2023-05-03T11:53:15.151Z,1.10
2023-05-03T11:55:48.028Z,0.88
2023-05-03T11:58:15.994Z,0.88
2023-05-03T12:00:50.694Z,1.00
2023-05-03T12:03:21.883Z,0.95
2023-05-03T12:05:51.649Z,1.23
2023-05-03T12:08:22.061Z,0.90
2023-05-03T12:10:53.180Z,0.82
2023-05-03T12:13:56.051Z,0.90
2023-05-03T12:16:23.198Z,0.93
2023-05-03T12:19:02.938Z,1.20
2023-05-03T12:21:54.210Z,1.00
2023-05-03T12:24:28.700Z,0.85
2023-05-03T12:26:57.410Z,0.90
2023-05-03T12:29:25.087Z,0.90
2023-05-03T12:31:52.710Z,0.93
2023-05-03T12:34:33.581Z,1.25
2023-05-03T12:37:04.853Z,0.88
2023-05-03T12:39:33.475Z,0.93
2023-05-03T12:44:34.952Z,0.70
2023-05-03T12:47:04.133Z,0.80
2023-05-03T12:49:32.418Z,0.75
2023-05-03T12:52:29.306Z,0.57
2023-05-03T12:54:49.518Z,0.60
2023-05-03T12:57:22.972Z,0.75
2023-05-03T12:59:55.655Z,0.95
2023-05-03T13:05:00.490Z,0.75
2023-05-03T13:07:31.197Z,0.70
2023-05-03T13:12:30.957Z,0.90
2023-05-03T13:14:58.836Z,1.13
2023-05-03T13:17:26.218Z,0.93
2023-05-03T13:19:53.572Z,0.57
2023-05-03T13:22:20.537Z,0.88
2023-05-03T13:24:48.168Z,0.75
2023-05-03T13:27:16.366Z,0.70
2023-05-03T13:29:44.433Z,0.73
2023-05-03T13:32:12.890Z,0.75
2023-05-03T13:34:40.127Z,0.80
2023-05-03T13:37:07.377Z,0.68
2023-05-03T13:39:34.647Z,0.75
2023-05-03T13:42:02.347Z,0.75
2023-05-03T13:44:30.028Z,0.80
2023-05-03T13:46:57.189Z,0.75
2023-05-03T13:49:25.570Z,0.80
2023-05-03T13:51:52.963Z,0.60
2023-05-03T13:54:20.707Z,0.70
2023-05-03T13:56:47.746Z,0.82
2023-05-03T13:59:16.110Z,0.85
2023-05-03T14:01:43.524Z,0.80
2023-05-03T14:04:11.104Z,0.82
2023-05-03T14:06:40.251Z,0.60
2023-05-03T14:09:08.909Z,0.60
2023-05-03T14:11:36.121Z,0.47
2023-05-03T14:14:03.712Z,0.60
2023-05-03T14:16:41.026Z,0.60
2023-05-03T14:19:11.235Z,0.75
2023-05-03T14:21:38.708Z,0.93
2023-05-03T14:24:06.760Z,0.70
2023-05-03T14:26:34.344Z,0.55
2023-05-03T14:29:02.058Z,0.70
2023-05-03T14:31:28.999Z,0.60
2023-05-03T14:33:56.902Z,0.80
2023-05-03T14:36:23.844Z,0.40
2023-05-03T14:38:51.123Z,0.55
2023-05-03T14:41:18.192Z,0.55
2023-05-03T14:43:45.438Z,0.63
2023-05-03T14:46:12.404Z,0.70
2023-05-03T14:48:39.653Z,0.57
2023-05-03T14:51:06.676Z,0.68
2023-05-03T14:53:33.824Z,0.82
2023-05-03T14:56:00.720Z,0.57
2023-05-03T14:58:28.255Z,0.60
2023-05-03T15:00:55.242Z,0.60
2023-05-03T15:03:22.551Z,0.70
2023-05-03T15:05:50.442Z,0.60
2023-05-03T15:08:19.303Z,0.73
2023-05-03T15:10:47.811Z,0.70
2023-05-03T15:13:16.320Z,0.68
2023-05-03T15:15:44.300Z,0.80
2023-05-03T15:18:13.606Z,0.47
2023-05-03T15:20:40.545Z,0.60
2023-05-03T15:23:07.874Z,0.60
2023-05-03T15:25:35.621Z,0.70
2023-05-03T15:28:04.582Z,0.65
2023-05-03T15:30:32.994Z,0.68
2023-05-03T15:33:01.929Z,0.65
2023-05-03T15:35:29.057Z,0.73
2023-05-03T15:37:56.486Z,0.50
2023-05-03T15:40:26.717Z,0.80
2023-05-03T15:42:54.317Z,0.82
2023-05-03T15:45:23.346Z,0.70
2023-05-03T15:47:50.946Z,0.90
2023-05-03T15:50:18.326Z,0.60
2023-05-03T15:52:48.697Z,0.73
2023-05-03T15:55:15.970Z,0.75
2023-05-03T15:57:43.187Z,0.63
2023-05-03T16:00:12.562Z,0.75
2023-05-03T16:02:40.291Z,0.40
2023-05-03T16:05:07.744Z,1.27
2023-05-03T16:07:35.182Z,0.82
2023-05-03T16:10:02.203Z,0.70
2023-05-03T16:12:29.722Z,0.90
2023-05-03T16:14:56.681Z,1.77
2023-05-03T16:17:23.959Z,1.02
2023-05-03T16:19:51.029Z,0.77
2023-05-03T16:22:18.313Z,0.63
2023-05-03T16:24:46.931Z,0.80
2023-05-03T16:27:14.433Z,0.50
2023-05-03T16:29:41.507Z,0.60
2023-05-03T16:32:10.025Z,0.50
2023-05-03T16:34:37.809Z,0.70
2023-05-03T16:37:05.532Z,0.50
2023-05-03T16:39:32.802Z,0.70
2023-05-03T16:42:00.120Z,0.55
2023-05-03T16:44:27.481Z,0.55
2023-05-03T16:46:55.221Z,0.70
2023-05-03T16:49:22.491Z,0.63
2023-05-03T16:51:49.756Z,0.70
2023-05-03T16:54:17.082Z,0.50
2023-05-03T16:56:44.788Z,0.50
2023-05-03T16:59:11.777Z,0.80
2023-05-03T17:01:39.353Z,0.65
2023-05-03T17:04:06.898Z,0.45
2023-05-03T17:06:34.522Z,0.55
2023-05-03T17:09:01.577Z,0.50
2023-05-03T17:11:30.068Z,0.68
2023-05-03T17:13:58.296Z,0.80
2023-05-03T17:16:26.414Z,0.60
2023-05-03T17:18:53.415Z,0.90
2023-05-03T17:21:20.802Z,0.80
2023-05-03T17:23:47.951Z,0.63
2023-05-03T17:26:15.536Z,0.50
2023-05-03T17:28:43.603Z,0.60
2023-05-03T17:31:12.658Z,0.77
2023-05-03T17:33:39.669Z,0.40
2023-05-03T17:36:07.270Z,0.60
2023-05-03T17:38:35.797Z,0.60
2023-05-03T17:41:10.414Z,0.55
2023-05-03T17:43:38.165Z,0.60
2023-05-03T17:46:08.707Z,0.70
2023-05-03T17:48:39.870Z,0.88
2023-05-03T17:51:07.581Z,0.73
2023-05-03T17:53:35.039Z,0.77
2023-05-03T17:56:02.253Z,0.52
2023-05-03T17:58:29.330Z,0.77
2023-05-03T18:00:57.276Z,0.60
2023-05-03T18:03:25.827Z,1.00
2023-05-03T18:05:53.163Z,0.63
2023-05-03T18:08:20.624Z,0.95
2023-05-03T18:10:48.109Z,0.82
2023-05-03T18:13:15.258Z,0.70
2023-05-03T18:15:42.758Z,0.98
2023-05-03T18:18:09.869Z,0.93
2023-05-03T18:20:37.171Z,0.90
2023-05-03T18:23:04.123Z,0.90
2023-05-03T18:25:31.799Z,1.00
2023-05-03T18:27:58.795Z,1.08
2023-05-03T18:30:28.171Z,0.80
2023-05-03T18:32:55.955Z,1.00
2023-05-03T18:35:23.650Z,0.73
2023-05-03T18:37:50.835Z,0.95
2023-05-03T18:40:18.295Z,0.77
2023-05-03T18:42:45.222Z,1.02
2023-05-03T18:45:15.097Z,2.08
2023-05-03T18:47:42.331Z,1.92
2023-05-03T18:50:10.055Z,2.55
2023-05-03T18:52:37.300Z,1.90
2023-05-03T18:55:04.987Z,2.75
2023-05-03T18:57:32.044Z,4.57
2023-05-03T19:00:01.004Z,4.10
2023-05-03T19:02:31.282Z,3.13
2023-05-03T19:04:59.929Z,2.58
2023-05-03T19:07:27.277Z,2.53
2023-05-03T19:09:55.449Z,2.90
2023-05-03T19:12:22.734Z,3.13
2023-05-03T19:14:50.258Z,2.92
2023-05-03T19:17:17.301Z,3.38
2023-05-03T19:19:44.525Z,2.22
2023-05-03T19:22:11.680Z,1.80
2023-05-03T19:24:39.906Z,2.55
2023-05-03T19:27:07.001Z,2.17
2023-05-03T19:29:34.232Z,2.25
2023-05-03T19:32:01.186Z,1.38
2023-05-03T19:34:28.534Z,1.60
2023-05-03T19:36:55.565Z,1.00
2023-05-03T19:39:23.287Z,1.50
2023-05-03T19:41:53.040Z,1.05
2023-05-03T19:44:20.405Z,1.58
2023-05-03T19:46:47.537Z,1.63
2023-05-03T19:49:15.007Z,1.98
2023-05-03T19:51:42.038Z,2.67
2023-05-03T19:54:11.345Z,1.85
2023-05-03T19:56:38.434Z,1.35
2023-05-03T19:59:05.715Z,1.50
2023-05-03T20:01:32.899Z,3.20
2023-05-03T20:04:00.224Z,3.58
2023-05-03T20:06:27.758Z,1.92
2023-05-03T20:08:55.064Z,2.30
2023-05-03T20:11:22.179Z,2.40
2023-05-03T20:13:49.457Z,2.53
2023-05-03T20:16:17.001Z,2.10
2023-05-03T20:18:45.658Z,1.35
2023-05-03T20:21:13.206Z,1.30
2023-05-03T20:23:40.415Z,1.52
2023-05-03T20:26:07.677Z,1.65
2023-05-03T20:28:35.136Z,1.77
2023-05-03T20:31:02.124Z,1.50
2023-05-03T20:33:29.290Z,1.40
2023-05-03T20:35:56.348Z,2.20
2023-05-03T20:38:23.814Z,3.22
2023-05-03T20:40:51.157Z,3.17
2023-05-03T20:43:18.695Z,3.00
2023-05-03T20:45:45.706Z,1.67
2023-05-03T20:48:12.960Z,2.33
2023-05-03T20:50:39.911Z,2.70
2023-05-03T20:53:07.305Z,2.33
2023-05-03T20:55:34.185Z,2.53
2023-05-03T20:58:01.560Z,2.30
2023-05-03T21:00:28.924Z,2.58
2023-05-03T21:02:56.315Z,2.40
2023-05-03T21:05:23.358Z,2.33
2023-05-03T21:07:50.620Z,1.75
2023-05-03T21:10:17.574Z,2.53
2023-05-03T21:12:44.825Z,1.52
2023-05-03T21:15:12.055Z,1.23
2023-05-03T21:17:39.318Z,1.05
2023-05-03T21:20:07.865Z,1.15
2023-05-03T21:22:35.109Z,0.90
2023-05-03T21:25:02.333Z,1.35
2023-05-03T21:27:29.690Z,1.00
2023-05-03T21:29:56.549Z,0.95
2023-05-03T21:32:24.130Z,1.33
2023-05-03T21:34:51.699Z,1.77
2023-05-03T21:37:19.001Z,2.55
2023-05-03T21:40:00.418Z,4.80
2023-05-03T21:42:28.063Z,11.63
2023-05-03T21:44:55.822Z,8.63
2023-05-03T21:47:23.080Z,3.47
2023-05-03T21:49:51.462Z,2.42
2023-05-03T21:52:19.024Z,1.88
2023-05-03T21:54:46.997Z,1.05
2023-05-03T21:57:14.792Z,1.20
2023-05-03T21:59:42.169Z,1.35
2023-05-03T22:02:09.496Z,1.08
2023-05-03T22:04:36.765Z,1.23
2023-05-03T22:07:04.059Z,2.20
2023-05-03T22:09:30.944Z,1.40
2023-05-03T22:11:59.402Z,2.58
2023-05-03T22:14:27.506Z,1.80
2023-05-03T22:16:55.599Z,1.30
2023-05-03T22:19:22.555Z,1.50
2023-05-03T22:21:50.778Z,1.30
2023-05-03T22:24:18.469Z,1.02
2023-05-03T22:26:45.705Z,1.33
2023-05-03T22:29:12.661Z,1.30
2023-05-03T22:31:40.249Z,1.33
2023-05-03T22:34:07.219Z,1.60
2023-05-03T22:36:34.445Z,1.30
2023-05-03T22:39:05.380Z,1.92
2023-05-03T22:41:33.154Z,3.67
2023-05-03T22:44:00.132Z,14.38
2023-05-03T22:46:27.615Z,12.98
2023-05-03T22:48:54.477Z,6.03
2023-05-03T22:51:21.770Z,4.80
2023-05-03T22:53:48.829Z,3.63
2023-05-03T22:56:16.088Z,3.50
2023-05-03T22:58:43.942Z,3.83
2023-05-03T23:01:15.046Z,2.50
2023-05-03T23:03:42.766Z,1.20
2023-05-03T23:06:10.798Z,1.45
2023-05-03T23:08:37.687Z,1.35
2023-05-03T23:11:05.292Z,5.85
2023-05-03T23:13:32.515Z,12.15
2023-05-03T23:15:59.937Z,7.13
2023-05-03T23:18:27.163Z,3.60
2023-05-03T23:20:54.519Z,2.58
2023-05-03T23:23:21.452Z,2.25
2023-05-03T23:25:48.824Z,2.30
2023-05-03T23:28:15.799Z,2.05
2023-05-03T23:30:44.557Z,2.50
2023-05-03T23:33:12.048Z,4.20
2023-05-03T23:35:40.943Z,4.32
2023-05-03T23:38:08.107Z,3.22
2023-05-03T23:40:35.668Z,3.85
2023-05-03T23:43:02.605Z,4.22
2023-05-03T23:45:29.899Z,2.75
2023-05-03T23:47:56.815Z,2.10
2023-05-03T23:50:23.959Z,2.15
2023-05-03T23:52:51.013Z,2.15
2023-05-03T23:55:18.353Z,1.90
2023-05-03T23:57:45.356Z,2.10
